• Join FlightAware (Why Join?)
  • Login
  • US Flag 
09:08AM EDT


 

Airport Tracker/Info


-or-


 

Live Flight TrackerFlight Track Log ✈ C-GONN ✈ 27-Apr-2013 ✈ CYKA - CYVR

Flight Track Log - Related Links

Times and Time Zones

All times are in EDT time to prevent confusion due to time zone crossing. See the C-GONN flight status page for this flight to view local times or setup timezone preferences in your user account.

Time Position Orientation Groundspeed Altitude Reporting Facility
EDT Latitude Longitude Course Direction KTS MPH feet Rate Location/Type
10:35PM 50.7000 -120.4833 209° Southwest 120 138 3,200  Level Vancouver Center
10:36PM 50.7167 -120.5333 298° West 110 127 5,100 1,620 Climbing Vancouver Center
10:38PM 50.5067 -120.4767 212° Southwest  Level FlightAware Approximate
10:38PM 50.6667 -120.6167 227° Southwest 140 161 8,200  Level Vancouver Center
10:39PM 50.4527 -120.5307 212° Southwest  Level FlightAware Approximate
10:39PM 50.6333 -120.6333 198° South 150 173 9,300  Level Vancouver Center
10:40PM 50.3943 -120.5716 209° Southwest  Level FlightAware Approximate
10:40PM 50.5833 -120.7000 220° Southwest 180 207 10,400  Level Vancouver Center
10:41PM 50.5500 -120.7500 224° Southwest 190 219 11,300 960 Climbing Vancouver Center
10:42PM 50.5000 -120.8000 212° Southwest 200 230 12,400 1,200 Climbing Vancouver Center
10:43PM 50.4667 -120.8667 232° Southwest 190 219 13,800 1,260 Climbing Vancouver Center
10:44PM 50.4167 -120.9167 213° Southwest 200 230 15,000 1,080 Climbing Vancouver Center
10:45PM 50.3667 -120.9667 213° Southwest 200 230 16,000 480 Climbing Vancouver Center
10:46PM 50.3333 -121.0333 232° Southwest 210 242 16,000  Level Vancouver Center
10:47PM 50.2667 -121.0833 206° Southwest 230 265 16,000  Level Vancouver Center
10:48PM 50.2333 -121.1667 238° Southwest 240 276 16,000  Level Vancouver Center
10:49PM 50.1833 -121.2167 213° Southwest 240 276 16,000 -60 Level Vancouver Center
10:50PM 50.1167 -121.3000 219° Southwest 260 299 15,900 60 Descending Vancouver Center
10:51PM 50.0667 -121.3500 213° Southwest 250 288 16,200 120 Climbing Vancouver Center
10:52PM 50.0167 -121.4333 227° Southwest 250 288 16,200  Level Vancouver Center
10:53PM 49.9500 -121.4833 206° Southwest 250 288 16,200  Level Vancouver Center
10:55PM 49.8835 -121.6374 236° Southwest  Level Estimated
11:02PM 49.6323 -122.2113 236° Southwest  Level Estimated
11:03PM 49.5962 -122.2928 236° Southwest  Level Estimated
11:04PM 49.5601 -122.3742 236° Southwest  Level Estimated
11:05PM 49.5238 -122.4555 236° Southwest  Level Estimated
11:06PM 49.4876 -122.5366 235° Southwest  Level Estimated
11:07PM 49.4512 -122.6176 235° Southwest  Level Estimated
11:08PM 49.4148 -122.6985 235° Southwest  Level Estimated
11:09PM 49.3784 -122.7793 235° Southwest  Level Estimated
11:10PM 49.3419 -122.8599 235° Southwest  Level Estimated
11:11PM 49.3053 -122.9405 235° Southwest  Level Estimated
11:12PM 49.2687 -123.0209 235° Southwest  Level Estimated
11:13PM 49.2320 -123.1012 235° Southwest  Level Estimated
11:14PM 49.1953 -123.1814 235° Southwest  Level Estimated
11:15PM 49.1939 -123.1844 235° Southwest  Level Estimated
11:16PM 49.1939 -123.1844 249° West  Level Estimated
11:17PM 49.1939 -123.1844 249° West  Level Estimated
11:18PM 49.1939 -123.1844 249° West  Level Estimated
11:19PM 49.1939 -123.1844 249° West  Level Estimated
11:20PM 49.1939 -123.1844 249° West  Level Estimated
11:21PM 49.1939 -123.1844 249° West  Level Estimated
11:22PM 49.1939 -123.1844 249° West  Level Estimated